Westview Chinook — VG3278 — position and weather

sailwx.info

Track history (hours):
 
Tides and Currents Weather Stations Pressure Air Temp Water Temp Dewpoint Dewpoint Depression Visibility Wind Speed Wind Dir Waves Ship Positions

Westview Chinook

Last reported at 2018-Apr-25 21:59 UTC. Time now 2018-Apr-25 22:19 UTC.
Position N 49°12' W 123°08'.

Length 15 m.

Type: Tug. MMSI: 316005622.

Date/timePositionNaut miles runAvg speedWind from/ knotsBaromVisibWave heightAir tempDewpointWater temp
2018-Apr-25 21:59N 49°12' W 123°08'1 2.8
2018-Apr-25 21:30N 49°12' W 123°06'0 0.0
2018-Apr-25 20:59N 49°12' W 123°06'0 0.0
2018-Apr-25 20:29N 49°12' W 123°06'0 0.0
2018-Apr-25 19:55N 49°12' W 123°06'0 0.0
2018-Apr-25 19:29N 49°12' W 123°06'0 0.0
2018-Apr-25 19:00N 49°12' W 123°06'3 5.3
2018-Apr-25 18:30N 49°13' W 123°10'4 7.8
2018-Apr-25 17:59N 49°15' W 123°15'4 7.8
2018-Apr-25 17:30N 49°17' W 123°20'5 8.8
2018-Apr-25 16:58N 49°20' W 123°26'4 8.1
2018-Apr-25 16:27N 49°24' W 123°26'4 7.9
2018-Apr-25 16:00N 49°27' W 123°28'4 8.2
2018-Apr-25 15:30N 49°31' W 123°28'0 0.6
2018-Apr-25 15:00N 49°31' W 123°29'2 3.4
2018-Apr-25 14:29N 49°30' W 123°28'3 5.4
2018-Apr-25 14:00N 49°27' W 123°27'2 4.3
2018-Apr-25 13:29N 49°26' W 123°25'3 5.8
2018-Apr-25 13:00N 49°26' W 123°21'2 4.3
2018-Apr-25 12:30N 49°24' W 123°18'2 4.5
2018-Apr-25 12:00N 49°22' W 123°18'2 4.8
2018-Apr-25 11:30N 49°20' W 123°18'3 5.2
2018-Apr-25 11:00N 49°17' W 123°18'2 4.3
2018-Apr-25 10:30N 49°15' W 123°16'2 4.2
2018-Apr-25 10:00N 49°14' W 123°14'2 3.8
2018-Apr-25 09:30N 49°13' W 123°11'1 2.3
2018-Apr-25 08:59N 49°13' W 123°09'2 3.9
2018-Apr-25 08:29N 49°12' W 123°06'2 3.5
2018-Apr-25 07:56N 49°12' W 123°09'2 4.2
2018-Apr-25 07:30N 49°12' W 123°07'0 0.2
2018-Apr-25 06:59N 49°12' W 123°06'0 0.0
2018-Apr-25 06:30N 49°12' W 123°06'0 0.0
2018-Apr-25 06:00N 49°12' W 123°06'0 0.9
2018-Apr-25 05:30N 49°12' W 123°06'0 0.0
2018-Apr-25 04:51N 49°12' W 123°06'0 0.0
2018-Apr-25 04:30N 49°12' W 123°06'0 0.0
2018-Apr-25 03:59N 49°12' W 123°06'0 0.0
2018-Apr-25 03:31N 49°12' W 123°06'0 0.0
2018-Apr-25 03:00N 49°12' W 123°06'0 0.0
2018-Apr-25 02:30N 49°12' W 123°06'1 2.1
2018-Apr-25 01:59N 49°12' W 123°08'1 1.8
2018-Apr-25 01:30N 49°12' W 123°09'3 5.8
2018-Apr-25 00:59N 49°12' W 123°04'3 6.9
2018-Apr-25 00:30N 49°11' W 122°60'3 5.3
2018-Apr-25 00:00N 49°12' W 122°56'3 5.7
2018-Apr-24 23:30N 49°13' W 122°52'0 0.9
2018-Apr-24 23:00N 49°13' W 122°52'0 1.0
2018-Apr-24 22:30N 49°13' W 122°53'3 5.7
2018-Apr-24 22:00N 49°12' W 122°57'2 4.9
2018-Apr-24 21:30N 49°12' W 123°01'2 4.8
2018-Apr-24 21:00N 49°12' W 123°04'1 2.7
2018-Apr-24 20:30N 49°12' W 123°06'2 4.2
2018-Apr-24 20:00N 49°12' W 123°09'2 4.5
2018-Apr-24 19:30N 49°13' W 123°12'4 7.3
2018-Apr-24 19:00N 49°16' W 123°17'4 8.5
2018-Apr-24 18:30N 49°18' W 123°22'4 8.2
2018-Apr-24 18:00N 49°21' W 123°26'4 8.0
2018-Apr-24 17:30N 49°25' W 123°26'4 7.8
2018-Apr-24 17:00N 49°29' W 123°28'2 4.8
2018-Apr-24 16:29N 49°31' W 123°29'1 1.4
2018-Apr-24 16:00N 49°31' W 123°28'3 5.8
2018-Apr-24 15:30N 49°28' W 123°28'3 5.6
2018-Apr-24 15:00N 49°25' W 123°27'2 4.5
2018-Apr-24 14:30N 49°23' W 123°26'3 5.2
2018-Apr-24 14:00N 49°20' W 123°26'3 5.4
2018-Apr-24 13:30N 49°19' W 123°23'3 5.4
2018-Apr-24 13:00N 49°17' W 123°20'2 5.1
2018-Apr-24 12:31N 49°16' W 123°17'3 5.5
2018-Apr-24 12:00N 49°14' W 123°13'3 4.8
2018-Apr-24 11:28N 49°13' W 123°10'0 0.7
2018-Apr-24 11:00N 49°13' W 123°09'2 3.5
2018-Apr-24 10:30N 49°12' W 123°07'2 3.4
2018-Apr-24 09:59N 49°13' W 123°09'2 3.8
2018-Apr-24 09:30N 49°12' W 123°07'3 5.3
2018-Apr-24 09:00N 49°12' W 123°03'3 5.1
2018-Apr-24 08:30N 49°11' W 122°59'2 4.6
2018-Apr-24 08:00N 49°12' W 122°56'2 3.9
2018-Apr-24 07:30N 49°13' W 122°53'1 1.4
2018-Apr-24 07:00N 49°13' W 122°53'1 2.5
2018-Apr-24 06:30N 49°13' W 122°51'2 4.4
2018-Apr-24 06:00N 49°13' W 122°48'3 5.8
2018-Apr-24 05:30N 49°13' W 122°43'3 5.5
2018-Apr-24 05:00N 49°12' W 122°39'3 5.5
2018-Apr-24 04:29N 49°11' W 122°35'8 4.2
2018-Apr-24 02:38N 49°09' W 122°24'7 3.8
2018-Apr-24 00:50N 49°11' W 122°34'2 6.3
2018-Apr-24 00:30N 49°12' W 122°36'3 6.2
2018-Apr-23 23:59N 49°12' W 122°41'3 6.6
2018-Apr-23 23:30N 49°13' W 122°45'3 6.3
2018-Apr-23 23:00N 49°13' W 122°50'3 5.4
2018-Apr-23 22:30N 49°12' W 122°54'0 0.1
2018-Apr-23 22:00N 49°12' W 122°54'0 0.0
2018-Apr-23 21:30N 49°12' W 122°54'0 0.0
2018-Apr-23 21:00N 49°12' W 122°54'2 3.1
2018-Apr-23 20:29N 49°12' W 122°56'3 5.6
2018-Apr-23 19:59N 49°12' W 123°01'3 7.1
2018-Apr-23 19:30N 49°12' W 123°06'0 0.0
2018-Apr-22 19:10N 49°12' W 123°07'1 7.4
2018-Apr-22 18:58N 49°12' W 123°09'1 2.1
2018-Apr-22 18:30N 49°13' W 123°10'3 6.9
2018-Apr-22 18:01N 49°14' W 123°15'3 6.7
2018-Apr-22 17:30N 49°16' W 123°19'4 7.3
2018-Apr-22 17:01N 49°18' W 123°24'3 6.6
2018-Apr-22 16:30N 49°21' W 123°26'4 7.7
2018-Apr-22 16:01N 49°25' W 123°26'4 7.6
2018-Apr-22 15:30N 49°28' W 123°28'3 6.4
2018-Apr-22 15:00N 49°31' W 123°29'0 0.8
2018-Apr-22 14:30N 49°31' W 123°29'1 1.1
2018-Apr-22 14:00N 49°31' W 123°28'2 4.5
2018-Apr-22 13:31N 49°29' W 123°28'2 4.9
2018-Apr-22 13:01N 49°26' W 123°28'2 4.4
2018-Apr-22 12:30N 49°25' W 123°24'3 5.3
2018-Apr-22 12:01N 49°26' W 123°20'2 4.1
2018-Apr-22 11:30N 49°24' W 123°18'3 5.0
2018-Apr-22 11:00N 49°22' W 123°18'2 4.7
2018-Apr-22 10:30N 49°20' W 123°18'2 4.5
2018-Apr-22 10:00N 49°17' W 123°18'2 3.8
2018-Apr-22 09:31N 49°16' W 123°17'2 4.1
2018-Apr-22 09:00N 49°14' W 123°14'2 3.8
2018-Apr-22 08:30N 49°13' W 123°12'1 2.7
2018-Apr-22 08:00N 49°13' W 123°10'1 1.1
2018-Apr-22 07:30N 49°12' W 123°09'2 4.1
2018-Apr-22 06:59N 49°12' W 123°06'0 0.0
2018-Apr-22 06:30N 49°12' W 123°06'0 0.0
2018-Apr-22 05:59N 49°12' W 123°06'0 0.0
2018-Apr-22 05:30N 49°12' W 123°06'0 0.0
2018-Apr-22 05:00N 49°12' W 123°06'0 0.0
2018-Apr-22 04:30N 49°12' W 123°06'0 0.0
2018-Apr-22 03:59N 49°12' W 123°06'0 0.0
2018-Apr-22 03:30N 49°12' W 123°06'0 0.0
2018-Apr-22 03:00N 49°12' W 123°06'0 0.0
2018-Apr-22 02:30N 49°12' W 123°06'0 0.0
2018-Apr-22 02:00N 49°12' W 123°06'0 0.0
2018-Apr-22 01:26N 49°12' W 123°06'0 0.0
2018-Apr-22 00:55N 49°12' W 123°06'0 0.0
2018-Apr-22 00:21N 49°12' W 123°06'0 0.0
2018-Apr-21 23:55N 49°12' W 123°06'0 0.0
2018-Apr-21 23:23N 49°12' W 123°06'0 0.0
2018-Apr-21 23:00N 49°12' W 123°06'0 0.0
2018-Apr-21 22:30N 49°12' W 123°06'0 0.0
2018-Apr-21 22:00N 49°12' W 123°06'0 0.0
2018-Apr-21 21:30N 49°12' W 123°06'0 0.0
2018-Apr-21 20:59N 49°12' W 123°06'0 0.0
2018-Apr-21 20:30N 49°12' W 123°06'0 0.0
2018-Apr-21 20:00N 49°12' W 123°06'0 0.0
2018-Apr-21 19:30N 49°12' W 123°06'0 0.0
2018-Apr-21 19:00N 49°12' W 123°06'2 4.2
2018-Apr-21 18:30N 49°12' W 123°09'3 6.2
2018-Apr-21 18:00N 49°14' W 123°14'3 6.6
2018-Apr-21 17:30N 49°16' W 123°18'5 9.2
2018-Apr-21 17:00N 49°18' W 123°24'4 8.1
2018-Apr-21 16:30N 49°22' W 123°26'4 7.2
2018-Apr-21 16:00N 49°25' W 123°27'4 7.5
2018-Apr-21 15:30N 49°29' W 123°28'3 5.1
2018-Apr-21 15:00N 49°31' W 123°29'0 0.6
2018-Apr-21 14:30N 49°31' W 123°29'0 0.2
2018-Apr-21 14:00N 49°31' W 123°29'1 2.9
2018-Apr-21 13:30N 49°30' W 123°28'3 5.7
2018-Apr-21 12:59N 49°27' W 123°28'2 4.6
2018-Apr-21 12:30N 49°25' W 123°25'3 5.7
2018-Apr-21 12:00N 49°26' W 123°21'2 4.4
2018-Apr-21 11:30N 49°24' W 123°18'3 5.4
2018-Apr-21 11:00N 49°22' W 123°18'3 5.7
2018-Apr-21 10:29N 49°19' W 123°18'3 5.4
2018-Apr-21 10:00N 49°16' W 123°18'3 5.2
2018-Apr-21 09:29N 49°14' W 123°15'2 4.5
2018-Apr-21 09:00N 49°13' W 123°12'2 3.4
2018-Apr-21 08:29N 49°13' W 123°09'0 0.6
2018-Apr-21 08:00N 49°12' W 123°09'2 5.0
2018-Apr-21 07:30N 49°12' W 123°05'0 0.5
2018-Apr-21 07:00N 49°12' W 123°06'1 0.1
2018-Apr-20 20:43N 49°12' W 123°07'1 4.6
2018-Apr-20 20:30N 49°12' W 123°08'0 0.0
2018-Apr-20 20:00N 49°12' W 123°08'0 0.0
2018-Apr-20 19:30N 49°12' W 123°08'1 2.6
2018-Apr-20 19:00N 49°13' W 123°10'3 5.1
2018-Apr-20 18:30N 49°14' W 123°13'3 5.5
2018-Apr-20 18:01N 49°15' W 123°17'3 5.6
2018-Apr-20 17:31N 49°17' W 123°20'4 7.0
2018-Apr-20 17:00N 49°19' W 123°25'4 6.4
2018-Apr-20 16:25N 49°22' W 123°26'3 6.9
2018-Apr-20 16:01N 49°25' W 123°27'4 7.2
2018-Apr-20 15:30N 49°29' W 123°28'3 5.4
2018-Apr-20 15:01N 49°31' W 123°29'0 0.5
2018-Apr-20 14:28N 49°31' W 123°29'1 2.7
2018-Apr-20 14:00N 49°30' W 123°28'3 5.3
2018-Apr-20 13:29N 49°27' W 123°28'2 5.0
2018-Apr-20 12:59N 49°25' W 123°26'2 4.5
2018-Apr-20 12:30N 49°23' W 123°26'2 5.0
2018-Apr-20 12:00N 49°20' W 123°27'3 5.1
2018-Apr-20 11:29N 49°19' W 123°23'3 5.4
2018-Apr-20 11:00N 49°17' W 123°20'3 5.2
2018-Apr-20 10:30N 49°16' W 123°17'3 4.8
2018-Apr-20 09:59N 49°14' W 123°14'2 4.7
2018-Apr-20 09:30N 49°13' W 123°11'1 2.4
2018-Apr-20 08:59N 49°12' W 123°09'0 0.1
2018-Apr-20 08:29N 49°12' W 123°09'0 0.0
2018-Apr-20 07:52N 49°12' W 123°09'1 2.6
2018-Apr-20 07:29N 49°12' W 123°08'1 2.7
2018-Apr-20 07:00N 49°12' W 123°06'0 0.0
2018-Apr-19 21:03N 49°12' W 123°06'0 0.0
2018-Apr-19 21:01N 49°12' W 123°06'2 4.2
2018-Apr-19 20:30N 49°12' W 123°09'1 2.2
2018-Apr-19 20:00N 49°13' W 123°11'2 4.7
2018-Apr-19 19:30N 49°14' W 123°14'2 4.4
2018-Apr-19 19:00N 49°15' W 123°17'3 6.7
2018-Apr-19 18:30N 49°17' W 123°21'4 7.3
2018-Apr-19 18:01N 49°19' W 123°25'4 6.9
2018-Apr-19 17:28N 49°23' W 123°26'3 6.7
2018-Apr-19 16:59N 49°26' W 123°27'4 7.7
2018-Apr-19 16:29N 49°30' W 123°28'1 3.0
2018-Apr-19 16:00N 49°31' W 123°29'3 6.2
2018-Apr-19 15:30N 49°28' W 123°28'2 4.8
2018-Apr-19 15:00N 49°31' W 123°28'1 1.3
2018-Apr-19 14:29N 49°31' W 123°29'0 0.4
2018-Apr-19 13:58N 49°31' W 123°29'1 3.0
2018-Apr-19 13:30N 49°30' W 123°28'3 5.5
2018-Apr-19 13:00N 49°27' W 123°28'2 5.0
2018-Apr-19 12:30N 49°25' W 123°26'2 4.9
2018-Apr-19 12:00N 49°22' W 123°26'3 5.1
2018-Apr-19 11:29N 49°20' W 123°26'3 5.9
2018-Apr-19 11:00N 49°18' W 123°22'3 5.8
2018-Apr-19 10:30N 49°16' W 123°18'2 4.5
2018-Apr-19 10:00N 49°15' W 123°16'2 4.7
2018-Apr-19 09:30N 49°14' W 123°13'2 4.3
2018-Apr-19 09:01N 49°13' W 123°10'2 3.7
2018-Apr-19 08:30N 49°12' W 123°07'1 1.3
2018-Apr-19 08:00N 49°12' W 123°06'2 3.8
2018-Apr-19 07:30N 49°12' W 123°09'2 4.2
2018-Apr-19 07:00N 49°12' W 123°06'0 0.0
2018-Apr-18 20:43N 49°12' W 123°06'0 0.0
2018-Apr-18 20:30N 49°12' W 123°06'1 2.2
2018-Apr-18 20:00N 49°12' W 123°08'2 2.9
2018-Apr-18 19:25N 49°13' W 123°10'2 4.5
2018-Apr-18 19:00N 49°13' W 123°13'2 4.5
2018-Apr-18 18:30N 49°15' W 123°16'2 5.0
2018-Apr-18 18:00N 49°16' W 123°19'4 7.0
2018-Apr-18 17:30N 49°18' W 123°23'4 6.7
2018-Apr-18 16:51N 49°22' W 123°26'3 7.6
2018-Apr-18 16:30N 49°25' W 123°26'4 7.3
2018-Apr-18 16:00N 49°28' W 123°28'3 6.8
2018-Apr-18 15:30N 49°31' W 123°29'0 0.5
2018-Apr-18 14:59N 49°31' W 123°29'0 0.8
2018-Apr-18 14:29N 49°31' W 123°28'2 4.7
2018-Apr-18 13:59N 49°29' W 123°28'2 4.8
2018-Apr-18 13:30N 49°26' W 123°27'3 4.8
2018-Apr-18 12:59N 49°24' W 123°25'2 4.8
2018-Apr-18 12:29N 49°22' W 123°26'2 4.9
2018-Apr-18 12:00N 49°20' W 123°25'3 5.5
2018-Apr-18 11:30N 49°18' W 123°22'3 5.5
2018-Apr-18 11:00N 49°17' W 123°18'2 4.2
2018-Apr-18 10:30N 49°15' W 123°16'2 3.6
2018-Apr-18 10:00N 49°14' W 123°14'2 3.8
2018-Apr-18 09:30N 49°13' W 123°11'1 2.9
2018-Apr-18 09:00N 49°12' W 123°09'0 0.1
2018-Apr-18 08:30N 49°13' W 123°09'2 3.3
2018-Apr-18 07:59N 49°12' W 123°07'0 0.5
2018-Apr-18 07:30N 49°12' W 123°07'0 0.8
2018-Apr-18 07:00N 49°12' W 123°06'0 0.0
2018-Apr-17 21:46N 49°12' W 123°06'1 4.0
2018-Apr-17 21:30N 49°12' W 123°08'1 2.1
2018-Apr-17 21:00N 49°12' W 123°09'2 4.9
2018-Apr-17 20:30N 49°13' W 123°13'2 4.6
2018-Apr-17 20:00N 49°15' W 123°15'2 3.3
2018-Apr-17 19:30N 49°16' W 123°17'3 5.2
2018-Apr-17 19:00N 49°17' W 123°21'3 6.7
2018-Apr-17 18:30N 49°19' W 123°25'3 6.3
2018-Apr-17 17:58N 49°23' W 123°26'3 5.6
2018-Apr-17 17:30N 49°25' W 123°26'3 6.3
2018-Apr-17 17:00N 49°28' W 123°28'3 6.4
2018-Apr-17 16:30N 49°31' W 123°28'0 0.7
2018-Apr-17 16:00N 49°31' W 123°29'0 0.6
2018-Apr-17 15:30N 49°31' W 123°29'1 1.5
2018-Apr-17 14:59N 49°31' W 123°28'2 4.0
2018-Apr-17 14:30N 49°29' W 123°28'2 4.0
2018-Apr-17 14:00N 49°27' W 123°27'2 3.7
2018-Apr-17 13:30N 49°25' W 123°26'2 3.4
2018-Apr-17 12:55N 49°23' W 123°26'2 4.1
2018-Apr-17 12:28N 49°21' W 123°26'2 4.1
2018-Apr-17 12:00N 49°20' W 123°25'2 4.5
2018-Apr-17 11:30N 49°18' W 123°22'2 4.3
2018-Apr-17 11:00N 49°17' W 123°19'2 4.2
2018-Apr-17 10:30N 49°16' W 123°17'1 2.6
2018-Apr-17 09:59N 49°15' W 123°15'1 2.7
2018-Apr-17 09:29N 49°14' W 123°14'1 2.8
2018-Apr-17 09:00N 49°13' W 123°12'2 3.7
2018-Apr-17 08:30N 49°13' W 123°09'0 0.4
2018-Apr-17 07:53N 49°12' W 123°09'2 4.6
2018-Apr-17 07:30N 49°12' W 123°06'  
Track history (hours):
 
Tides and Currents Weather Stations Pressure Air Temp Water Temp Dewpoint Dewpoint Depression Visibility Wind Speed Wind Dir Waves Ship Positions

Westview Chinook

Last reported at 2018-Apr-25 21:59 UTC. Time now 2018-Apr-25 22:19 UTC.
Position N 49°12' W 123°08'.

Length 15 m.

Type: Tug. MMSI: 316005622.

Date/timePositionNaut miles runAvg speedWind from/ knotsBaromVisibWave heightAir tempDewpointWater temp
2018-Apr-25 21:59N 49°12' W 123°08'1 2.8
2018-Apr-25 21:30N 49°12' W 123°06'0 0.0
2018-Apr-25 20:59N 49°12' W 123°06'0 0.0
2018-Apr-25 20:29N 49°12' W 123°06'0 0.0
2018-Apr-25 19:55N 49°12' W 123°06'0 0.0
2018-Apr-25 19:29N 49°12' W 123°06'0 0.0
2018-Apr-25 19:00N 49°12' W 123°06'3 5.3
2018-Apr-25 18:30N 49°13' W 123°10'4 7.8
2018-Apr-25 17:59N 49°15' W 123°15'4 7.8
2018-Apr-25 17:30N 49°17' W 123°20'5 8.8
2018-Apr-25 16:58N 49°20' W 123°26'4 8.1
2018-Apr-25 16:27N 49°24' W 123°26'4 7.9
2018-Apr-25 16:00N 49°27' W 123°28'4 8.2
2018-Apr-25 15:30N 49°31' W 123°28'0 0.6
2018-Apr-25 15:00N 49°31' W 123°29'2 3.4
2018-Apr-25 14:29N 49°30' W 123°28'3 5.4
2018-Apr-25 14:00N 49°27' W 123°27'2 4.3
2018-Apr-25 13:29N 49°26' W 123°25'3 5.8
2018-Apr-25 13:00N 49°26' W 123°21'2 4.3
2018-Apr-25 12:30N 49°24' W 123°18'2 4.5
2018-Apr-25 12:00N 49°22' W 123°18'2 4.8
2018-Apr-25 11:30N 49°20' W 123°18'3 5.2
2018-Apr-25 11:00N 49°17' W 123°18'2 4.3
2018-Apr-25 10:30N 49°15' W 123°16'2 4.2
2018-Apr-25 10:00N 49°14' W 123°14'2 3.8
2018-Apr-25 09:30N 49°13' W 123°11'1 2.3
2018-Apr-25 08:59N 49°13' W 123°09'2 3.9
2018-Apr-25 08:29N 49°12' W 123°06'2 3.5
2018-Apr-25 07:56N 49°12' W 123°09'2 4.2
2018-Apr-25 07:30N 49°12' W 123°07'0 0.2
2018-Apr-25 06:59N 49°12' W 123°06'0 0.0
2018-Apr-25 06:30N 49°12' W 123°06'0 0.0
2018-Apr-25 06:00N 49°12' W 123°06'0 0.9
2018-Apr-25 05:30N 49°12' W 123°06'0 0.0
2018-Apr-25 04:51N 49°12' W 123°06'0 0.0
2018-Apr-25 04:30N 49°12' W 123°06'0 0.0
2018-Apr-25 03:59N 49°12' W 123°06'0 0.0
2018-Apr-25 03:31N 49°12' W 123°06'0 0.0
2018-Apr-25 03:00N 49°12' W 123°06'0 0.0
2018-Apr-25 02:30N 49°12' W 123°06'1 2.1
2018-Apr-25 01:59N 49°12' W 123°08'1 1.8
2018-Apr-25 01:30N 49°12' W 123°09'3 5.8
2018-Apr-25 00:59N 49°12' W 123°04'3 6.9
2018-Apr-25 00:30N 49°11' W 122°60'3 5.3
2018-Apr-25 00:00N 49°12' W 122°56'3 5.7
2018-Apr-24 23:30N 49°13' W 122°52'0 0.9
2018-Apr-24 23:00N 49°13' W 122°52'0 1.0
2018-Apr-24 22:30N 49°13' W 122°53'3 5.7
2018-Apr-24 22:00N 49°12' W 122°57'2 4.9
2018-Apr-24 21:30N 49°12' W 123°01'2 4.8
2018-Apr-24 21:00N 49°12' W 123°04'1 2.7
2018-Apr-24 20:30N 49°12' W 123°06'2 4.2
2018-Apr-24 20:00N 49°12' W 123°09'2 4.5
2018-Apr-24 19:30N 49°13' W 123°12'4 7.3
2018-Apr-24 19:00N 49°16' W 123°17'4 8.5
2018-Apr-24 18:30N 49°18' W 123°22'4 8.2
2018-Apr-24 18:00N 49°21' W 123°26'4 8.0
2018-Apr-24 17:30N 49°25' W 123°26'4 7.8
2018-Apr-24 17:00N 49°29' W 123°28'2 4.8
2018-Apr-24 16:29N 49°31' W 123°29'1 1.4
2018-Apr-24 16:00N 49°31' W 123°28'3 5.8
2018-Apr-24 15:30N 49°28' W 123°28'3 5.6
2018-Apr-24 15:00N 49°25' W 123°27'2 4.5
2018-Apr-24 14:30N 49°23' W 123°26'3 5.2
2018-Apr-24 14:00N 49°20' W 123°26'3 5.4
2018-Apr-24 13:30N 49°19' W 123°23'3 5.4
2018-Apr-24 13:00N 49°17' W 123°20'2 5.1
2018-Apr-24 12:31N 49°16' W 123°17'3 5.5
2018-Apr-24 12:00N 49°14' W 123°13'3 4.8
2018-Apr-24 11:28N 49°13' W 123°10'0 0.7
2018-Apr-24 11:00N 49°13' W 123°09'2 3.5
2018-Apr-24 10:30N 49°12' W 123°07'2 3.4
2018-Apr-24 09:59N 49°13' W 123°09'2 3.8
2018-Apr-24 09:30N 49°12' W 123°07'3 5.3
2018-Apr-24 09:00N 49°12' W 123°03'3 5.1
2018-Apr-24 08:30N 49°11' W 122°59'2 4.6
2018-Apr-24 08:00N 49°12' W 122°56'2 3.9
2018-Apr-24 07:30N 49°13' W 122°53'1 1.4
2018-Apr-24 07:00N 49°13' W 122°53'1 2.5
2018-Apr-24 06:30N 49°13' W 122°51'2 4.4
2018-Apr-24 06:00N 49°13' W 122°48'3 5.8
2018-Apr-24 05:30N 49°13' W 122°43'3 5.5
2018-Apr-24 05:00N 49°12' W 122°39'3 5.5
2018-Apr-24 04:29N 49°11' W 122°35'8 4.2
2018-Apr-24 02:38N 49°09' W 122°24'7 3.8
2018-Apr-24 00:50N 49°11' W 122°34'2 6.3
2018-Apr-24 00:30N 49°12' W 122°36'3 6.2
2018-Apr-23 23:59N 49°12' W 122°41'3 6.6
2018-Apr-23 23:30N 49°13' W 122°45'3 6.3
2018-Apr-23 23:00N 49°13' W 122°50'3 5.4
2018-Apr-23 22:30N 49°12' W 122°54'0 0.1
2018-Apr-23 22:00N 49°12' W 122°54'0 0.0
2018-Apr-23 21:30N 49°12' W 122°54'0 0.0
2018-Apr-23 21:00N 49°12' W 122°54'2 3.1
2018-Apr-23 20:29N 49°12' W 122°56'3 5.6
2018-Apr-23 19:59N 49°12' W 123°01'3 7.1
2018-Apr-23 19:30N 49°12' W 123°06'0 0.0
2018-Apr-22 19:10N 49°12' W 123°07'1 7.4
2018-Apr-22 18:58N 49°12' W 123°09'1 2.1
2018-Apr-22 18:30N 49°13' W 123°10'3 6.9
2018-Apr-22 18:01N 49°14' W 123°15'3 6.7
2018-Apr-22 17:30N 49°16' W 123°19'4 7.3
2018-Apr-22 17:01N 49°18' W 123°24'3 6.6
2018-Apr-22 16:30N 49°21' W 123°26'4 7.7
2018-Apr-22 16:01N 49°25' W 123°26'4 7.6
2018-Apr-22 15:30N 49°28' W 123°28'3 6.4
2018-Apr-22 15:00N 49°31' W 123°29'0 0.8
2018-Apr-22 14:30N 49°31' W 123°29'1 1.1
2018-Apr-22 14:00N 49°31' W 123°28'2 4.5
2018-Apr-22 13:31N 49°29' W 123°28'2 4.9
2018-Apr-22 13:01N 49°26' W 123°28'2 4.4
2018-Apr-22 12:30N 49°25' W 123°24'3 5.3
2018-Apr-22 12:01N 49°26' W 123°20'2 4.1
2018-Apr-22 11:30N 49°24' W 123°18'3 5.0
2018-Apr-22 11:00N 49°22' W 123°18'2 4.7
2018-Apr-22 10:30N 49°20' W 123°18'2 4.5
2018-Apr-22 10:00N 49°17' W 123°18'2 3.8
2018-Apr-22 09:31N 49°16' W 123°17'2 4.1
2018-Apr-22 09:00N 49°14' W 123°14'2 3.8
2018-Apr-22 08:30N 49°13' W 123°12'1 2.7
2018-Apr-22 08:00N 49°13' W 123°10'1 1.1
2018-Apr-22 07:30N 49°12' W 123°09'2 4.1
2018-Apr-22 06:59N 49°12' W 123°06'0 0.0
2018-Apr-22 06:30N 49°12' W 123°06'0 0.0
2018-Apr-22 05:59N 49°12' W 123°06'0 0.0
2018-Apr-22 05:30N 49°12' W 123°06'0 0.0
2018-Apr-22 05:00N 49°12' W 123°06'0 0.0
2018-Apr-22 04:30N 49°12' W 123°06'0 0.0
2018-Apr-22 03:59N 49°12' W 123°06'0 0.0
2018-Apr-22 03:30N 49°12' W 123°06'0 0.0
2018-Apr-22 03:00N 49°12' W 123°06'0 0.0
2018-Apr-22 02:30N 49°12' W 123°06'0 0.0
2018-Apr-22 02:00N 49°12' W 123°06'0 0.0
2018-Apr-22 01:26N 49°12' W 123°06'0 0.0
2018-Apr-22 00:55N 49°12' W 123°06'0 0.0
2018-Apr-22 00:21N 49°12' W 123°06'0 0.0
2018-Apr-21 23:55N 49°12' W 123°06'0 0.0
2018-Apr-21 23:23N 49°12' W 123°06'0 0.0
2018-Apr-21 23:00N 49°12' W 123°06'0 0.0
2018-Apr-21 22:30N 49°12' W 123°06'0 0.0
2018-Apr-21 22:00N 49°12' W 123°06'0 0.0
2018-Apr-21 21:30N 49°12' W 123°06'0 0.0
2018-Apr-21 20:59N 49°12' W 123°06'0 0.0
2018-Apr-21 20:30N 49°12' W 123°06'0 0.0
2018-Apr-21 20:00N 49°12' W 123°06'0 0.0
2018-Apr-21 19:30N 49°12' W 123°06'0 0.0
2018-Apr-21 19:00N 49°12' W 123°06'2 4.2
2018-Apr-21 18:30N 49°12' W 123°09'3 6.2
2018-Apr-21 18:00N 49°14' W 123°14'3 6.6
2018-Apr-21 17:30N 49°16' W 123°18'5 9.2
2018-Apr-21 17:00N 49°18' W 123°24'4 8.1
2018-Apr-21 16:30N 49°22' W 123°26'4 7.2
2018-Apr-21 16:00N 49°25' W 123°27'4 7.5
2018-Apr-21 15:30N 49°29' W 123°28'3 5.1
2018-Apr-21 15:00N 49°31' W 123°29'0 0.6
2018-Apr-21 14:30N 49°31' W 123°29'0 0.2
2018-Apr-21 14:00N 49°31' W 123°29'1 2.9
2018-Apr-21 13:30N 49°30' W 123°28'3 5.7
2018-Apr-21 12:59N 49°27' W 123°28'2 4.6
2018-Apr-21 12:30N 49°25' W 123°25'3 5.7
2018-Apr-21 12:00N 49°26' W 123°21'2 4.4
2018-Apr-21 11:30N 49°24' W 123°18'3 5.4
2018-Apr-21 11:00N 49°22' W 123°18'3 5.7
2018-Apr-21 10:29N 49°19' W 123°18'3 5.4
2018-Apr-21 10:00N 49°16' W 123°18'3 5.2
2018-Apr-21 09:29N 49°14' W 123°15'2 4.5
2018-Apr-21 09:00N 49°13' W 123°12'2 3.4
2018-Apr-21 08:29N 49°13' W 123°09'0 0.6
2018-Apr-21 08:00N 49°12' W 123°09'2 5.0
2018-Apr-21 07:30N 49°12' W 123°05'0 0.5
2018-Apr-21 07:00N 49°12' W 123°06'1 0.1
2018-Apr-20 20:43N 49°12' W 123°07'1 4.6
2018-Apr-20 20:30N 49°12' W 123°08'0 0.0
2018-Apr-20 20:00N 49°12' W 123°08'0 0.0
2018-Apr-20 19:30N 49°12' W 123°08'1 2.6
2018-Apr-20 19:00N 49°13' W 123°10'3 5.1
2018-Apr-20 18:30N 49°14' W 123°13'3 5.5
2018-Apr-20 18:01N 49°15' W 123°17'3 5.6
2018-Apr-20 17:31N 49°17' W 123°20'4 7.0
2018-Apr-20 17:00N 49°19' W 123°25'4 6.4
2018-Apr-20 16:25N 49°22' W 123°26'3 6.9
2018-Apr-20 16:01N 49°25' W 123°27'4 7.2
2018-Apr-20 15:30N 49°29' W 123°28'3 5.4
2018-Apr-20 15:01N 49°31' W 123°29'0 0.5
2018-Apr-20 14:28N 49°31' W 123°29'1 2.7
2018-Apr-20 14:00N 49°30' W 123°28'3 5.3
2018-Apr-20 13:29N 49°27' W 123°28'2 5.0
2018-Apr-20 12:59N 49°25' W 123°26'2 4.5
2018-Apr-20 12:30N 49°23' W 123°26'2 5.0
2018-Apr-20 12:00N 49°20' W 123°27'3 5.1
2018-Apr-20 11:29N 49°19' W 123°23'3 5.4
2018-Apr-20 11:00N 49°17' W 123°20'3 5.2
2018-Apr-20 10:30N 49°16' W 123°17'3 4.8
2018-Apr-20 09:59N 49°14' W 123°14'2 4.7
2018-Apr-20 09:30N 49°13' W 123°11'1 2.4
2018-Apr-20 08:59N 49°12' W 123°09'0 0.1
2018-Apr-20 08:29N 49°12' W 123°09'0 0.0
2018-Apr-20 07:52N 49°12' W 123°09'1 2.6
2018-Apr-20 07:29N 49°12' W 123°08'1 2.7
2018-Apr-20 07:00N 49°12' W 123°06'0 0.0
2018-Apr-19 21:03N 49°12' W 123°06'0 0.0
2018-Apr-19 21:01N 49°12' W 123°06'2 4.2
2018-Apr-19 20:30N 49°12' W 123°09'1 2.2
2018-Apr-19 20:00N 49°13' W 123°11'2 4.7
2018-Apr-19 19:30N 49°14' W 123°14'2 4.4
2018-Apr-19 19:00N 49°15' W 123°17'3 6.7
2018-Apr-19 18:30N 49°17' W 123°21'4 7.3
2018-Apr-19 18:01N 49°19' W 123°25'4 6.9
2018-Apr-19 17:28N 49°23' W 123°26'3 6.7
2018-Apr-19 16:59N 49°26' W 123°27'4 7.7
2018-Apr-19 16:29N 49°30' W 123°28'1 3.0
2018-Apr-19 16:00N 49°31' W 123°29'3 6.2
2018-Apr-19 15:30N 49°28' W 123°28'2 4.8
2018-Apr-19 15:00N 49°31' W 123°28'1 1.3
2018-Apr-19 14:29N 49°31' W 123°29'0 0.4
2018-Apr-19 13:58N 49°31' W 123°29'1 3.0
2018-Apr-19 13:30N 49°30' W 123°28'3 5.5
2018-Apr-19 13:00N 49°27' W 123°28'2 5.0
2018-Apr-19 12:30N 49°25' W 123°26'2 4.9
2018-Apr-19 12:00N 49°22' W 123°26'3 5.1
2018-Apr-19 11:29N 49°20' W 123°26'3 5.9
2018-Apr-19 11:00N 49°18' W 123°22'3 5.8
2018-Apr-19 10:30N 49°16' W 123°18'2 4.5
2018-Apr-19 10:00N 49°15' W 123°16'2 4.7
2018-Apr-19 09:30N 49°14' W 123°13'2 4.3
2018-Apr-19 09:01N 49°13' W 123°10'2 3.7
2018-Apr-19 08:30N 49°12' W 123°07'1 1.3
2018-Apr-19 08:00N 49°12' W 123°06'2 3.8
2018-Apr-19 07:30N 49°12' W 123°09'2 4.2
2018-Apr-19 07:00N 49°12' W 123°06'0 0.0
2018-Apr-18 20:43N 49°12' W 123°06'0 0.0
2018-Apr-18 20:30N 49°12' W 123°06'1 2.2
2018-Apr-18 20:00N 49°12' W 123°08'2 2.9
2018-Apr-18 19:25N 49°13' W 123°10'2 4.5
2018-Apr-18 19:00N 49°13' W 123°13'2 4.5
2018-Apr-18 18:30N 49°15' W 123°16'2 5.0
2018-Apr-18 18:00N 49°16' W 123°19'4 7.0
2018-Apr-18 17:30N 49°18' W 123°23'4 6.7
2018-Apr-18 16:51N 49°22' W 123°26'3 7.6
2018-Apr-18 16:30N 49°25' W 123°26'4 7.3
2018-Apr-18 16:00N 49°28' W 123°28'3 6.8
2018-Apr-18 15:30N 49°31' W 123°29'0 0.5
2018-Apr-18 14:59N 49°31' W 123°29'0 0.8
2018-Apr-18 14:29N 49°31' W 123°28'2 4.7
2018-Apr-18 13:59N 49°29' W 123°28'2 4.8
2018-Apr-18 13:30N 49°26' W 123°27'3 4.8
2018-Apr-18 12:59N 49°24' W 123°25'2 4.8
2018-Apr-18 12:29N 49°22' W 123°26'2 4.9
2018-Apr-18 12:00N 49°20' W 123°25'3 5.5
2018-Apr-18 11:30N 49°18' W 123°22'3 5.5
2018-Apr-18 11:00N 49°17' W 123°18'2 4.2
2018-Apr-18 10:30N 49°15' W 123°16'2 3.6
2018-Apr-18 10:00N 49°14' W 123°14'2 3.8
2018-Apr-18 09:30N 49°13' W 123°11'1 2.9
2018-Apr-18 09:00N 49°12' W 123°09'0 0.1
2018-Apr-18 08:30N 49°13' W 123°09'2 3.3
2018-Apr-18 07:59N 49°12' W 123°07'0 0.5
2018-Apr-18 07:30N 49°12' W 123°07'0 0.8
2018-Apr-18 07:00N 49°12' W 123°06'0 0.0
2018-Apr-17 21:46N 49°12' W 123°06'1 4.0
2018-Apr-17 21:30N 49°12' W 123°08'1 2.1
2018-Apr-17 21:00N 49°12' W 123°09'2 4.9
2018-Apr-17 20:30N 49°13' W 123°13'2 4.6
2018-Apr-17 20:00N 49°15' W 123°15'2 3.3
2018-Apr-17 19:30N 49°16' W 123°17'3 5.2
2018-Apr-17 19:00N 49°17' W 123°21'3 6.7
2018-Apr-17 18:30N 49°19' W 123°25'3 6.3
2018-Apr-17 17:58N 49°23' W 123°26'3 5.6
2018-Apr-17 17:30N 49°25' W 123°26'3 6.3
2018-Apr-17 17:00N 49°28' W 123°28'3 6.4
2018-Apr-17 16:30N 49°31' W 123°28'0 0.7
2018-Apr-17 16:00N 49°31' W 123°29'0 0.6
2018-Apr-17 15:30N 49°31' W 123°29'1 1.5
2018-Apr-17 14:59N 49°31' W 123°28'2 4.0
2018-Apr-17 14:30N 49°29' W 123°28'2 4.0
2018-Apr-17 14:00N 49°27' W 123°27'2 3.7
2018-Apr-17 13:30N 49°25' W 123°26'2 3.4
2018-Apr-17 12:55N 49°23' W 123°26'2 4.1
2018-Apr-17 12:28N 49°21' W 123°26'2 4.1
2018-Apr-17 12:00N 49°20' W 123°25'2 4.5
2018-Apr-17 11:30N 49°18' W 123°22'2 4.3
2018-Apr-17 11:00N 49°17' W 123°19'2 4.2
2018-Apr-17 10:30N 49°16' W 123°17'1 2.6
2018-Apr-17 09:59N 49°15' W 123°15'1 2.7
2018-Apr-17 09:29N 49°14' W 123°14'1 2.8
2018-Apr-17 09:00N 49°13' W 123°12'2 3.7
2018-Apr-17 08:30N 49°13' W 123°09'0 0.4
2018-Apr-17 07:53N 49°12' W 123°09'2 4.6
2018-Apr-17 07:30N 49°12' W 123°06'  

Dump ship's entire track history